Time;durP1;ratioP1;P1;durP2;ratioP2;P2;SDS_P1;SDS_P2;PMS_P1;PMS_P2;Temp;Humidity;BMP_temperature;BMP_pressure;BME280_temperature;BME280_humidity;BME280_pressure;Samples;Min_cycle;Max_cycle;Signal;HPM_P1;HPM_P2
2023/04/30 00:00:49;;;;;;;14.73;10.02;;;;;;;;;;5093446;28;20168;-45
2023/04/30 00:03:14;;;;;;;14.13;10.43;;;10.10;99.90;;;;;;5093508;28;20172;-45
2023/04/30 00:05:40;;;;;;;11.90;9.27;;;10.00;99.90;;;;;;5092997;28;20169;-45
2023/04/30 00:08:05;;;;;;;13.68;10.95;;;9.90;99.90;;;;;;5092737;28;20230;-44
2023/04/30 00:10:31;;;;;;;14.40;10.02;;;9.80;99.90;;;;;;5093128;28;20213;-45
2023/04/30 00:12:57;;;;;;;13.77;10.20;;;9.90;99.90;;;;;;5093551;28;20281;-45
2023/04/30 00:15:23;;;;;;;14.90;10.82;;;9.90;99.90;;;;;;5093402;28;20292;-45
2023/04/30 00:17:48;;;;;;;12.70;10.25;;;9.90;99.90;;;;;;5093057;28;20240;-45
2023/04/30 00:20:14;;;;;;;13.88;10.68;;;9.80;99.90;;;;;;5093313;28;20193;-45
2023/04/30 00:22:40;;;;;;;13.68;9.95;;;9.80;99.90;;;;;;5093132;28;20180;-45
2023/04/30 00:25:06;;;;;;;14.73;10.85;;;9.90;99.90;;;;;;5092970;28;20161;-45
2023/04/30 00:27:31;;;;;;;14.98;11.05;;;9.80;99.90;;;;;;5093311;28;20173;-45
2023/04/30 00:29:57;;;;;;;11.77;9.77;;;9.80;99.90;;;;;;5093557;28;20162;-45
2023/04/30 00:32:23;;;;;;;12.70;10.02;;;9.80;99.90;;;;;;5092855;28;20601;-45
2023/04/30 00:34:48;;;;;;;12.82;10.25;;;9.80;99.90;;;;;;5092683;28;20561;-45
2023/04/30 00:37:14;;;;;;;14.13;10.25;;;9.80;99.90;;;;;;5093061;28;20169;-44
2023/04/30 00:39:40;;;;;;;16.17;10.68;;;9.80;99.90;;;;;;5092979;28;20279;-45
2023/04/30 00:42:05;;;;;;;17.23;9.65;;;9.70;99.90;;;;;;5092985;28;20193;-45
2023/04/30 00:44:31;;;;;;;11.82;9.85;;;9.60;99.90;;;;;;5092672;28;20697;-45
2023/04/30 00:46:56;;;;;;;14.18;10.00;;;9.70;99.90;;;;;;5093007;28;20170;-45
2023/04/30 00:49:22;;;;;;;14.30;10.00;;;9.70;99.90;;;;;;5092578;28;20165;-45
2023/04/30 00:51:48;;;;;;;14.82;10.70;;;9.70;99.90;;;;;;5092463;28;20169;-45
2023/04/30 00:54:14;;;;;;;11.82;9.40;;;9.70;99.90;;;;;;5092452;28;20201;-47
2023/04/30 00:56:40;;;;;;;14.70;9.88;;;9.70;99.90;;;;;;5092489;28;20173;-47
2023/04/30 00:59:06;;;;;;;12.80;9.23;;;9.70;99.90;;;;;;5092647;28;20172;-46
2023/04/30 01:01:32;;;;;;;14.05;10.43;;;9.70;99.90;;;;;;5092267;28;20184;-47
2023/04/30 01:03:58;;;;;;;18.70;10.27;;;9.70;99.90;;;;;;5092709;28;20165;-52
2023/04/30 01:06:25;;;;;;;13.80;10.05;;;9.70;99.90;;;;;;5092673;28;20219;-52
2023/04/30 01:08:51;;;;;;;13.00;9.82;;;9.60;99.90;;;;;;5092533;28;20177;-53
2023/04/30 01:11:35;;;;;;;12.20;9.27;;;9.60;99.90;;;;;;5092096;28;20217;-52
2023/04/30 01:14:07;;;;;;;14.13;10.55;;;9.60;99.90;;;;;;5092207;28;20633;-51
2023/04/30 01:16:39;;;;;;;13.30;10.40;;;9.50;99.90;;;;;;5092354;28;20176;-52
2023/04/30 01:19:19;;;;;;;12.88;9.20;;;9.50;99.90;;;;;;5092067;28;20210;-52
2023/04/30 01:21:45;;;;;;;17.40;8.73;;;9.50;99.90;;;;;;5092131;28;20161;-52
2023/04/30 01:24:32;;;;;;;14.52;8.80;;;9.40;99.90;;;;;;5091998;28;20169;-52
2023/04/30 01:26:59;;;;;;;14.45;9.63;;;;;;;;;;5091664;28;20214;-48
2023/04/30 01:29:26;;;;;;;13.93;9.27;;;9.40;99.90;;;;;;5092079;28;20517;-50
2023/04/30 01:31:52;;;;;;;13.38;9.38;;;9.40;99.90;;;;;;5092166;28;20177;-52
2023/04/30 01:34:17;;;;;;;14.23;9.10;;;9.40;99.90;;;;;;5091738;28;20213;-52
2023/04/30 01:37:09;;;;;;;11.60;9.02;;;9.30;99.90;;;;;;5091852;28;20201;-52
2023/04/30 01:40:04;;;;;;;12.35;8.88;;;9.40;99.90;;;;;;5091777;28;20164;-52
2023/04/30 01:42:35;;;;;;;13.20;8.98;;;9.40;99.90;;;;;;5091746;28;20649;-52
2023/04/30 01:45:26;;;;;;;13.82;9.50;;;9.30;99.90;;;;;;5091781;28;20255;-52
2023/04/30 01:48:06;;;;;;;11.82;8.43;;;9.20;99.90;;;;;;5091677;28;20169;-52
2023/04/30 01:50:57;;;;;;;12.38;8.82;;;9.20;99.90;;;;;;5091685;28;20161;-52
2023/04/30 01:53:31;;;;;;;11.90;8.18;;;9.20;99.90;;;;;;5091555;28;20193;-52
2023/04/30 01:56:03;;;;;;;11.30;8.75;;;9.20;99.90;;;;;;5092100;28;20161;-52
2023/04/30 01:58:29;;;;;;;12.85;9.15;;;9.20;99.90;;;;;;5091661;28;20169;-48
2023/04/30 02:00:55;;;;;;;13.63;9.18;;;9.20;99.90;;;;;;5092136;28;20172;-51
2023/04/30 02:03:20;;;;;;;12.57;9.57;;;9.10;99.90;;;;;;5091589;28;20599;-44
2023/04/30 02:05:47;;;;;;;10.48;8.57;;;9.10;99.90;;;;;;5091666;28;20161;-44
2023/04/30 02:08:12;;;;;;;12.15;8.85;;;9.10;99.90;;;;;;5091881;28;20170;-44
2023/04/30 02:10:38;;;;;;;10.95;8.10;;;9.10;99.90;;;;;;5091497;28;20228;-45
2023/04/30 02:13:04;;;;;;;10.77;7.90;;;;;;;;;;5091367;28;20162;-45
2023/04/30 02:15:30;;;;;;;12.02;8.45;;;9.00;99.90;;;;;;5091525;28;20173;-44
2023/04/30 02:17:55;;;;;;;15.77;9.15;;;9.00;99.90;;;;;;5092135;28;20222;-45
2023/04/30 02:20:21;;;;;;;16.73;8.85;;;9.00;99.90;;;;;;5091436;28;20526;-45
2023/04/30 02:22:46;;;;;;;12.00;8.40;;;9.00;99.90;;;;;;5091599;28;20173;-44
2023/04/30 02:25:13;;;;;;;17.65;10.00;;;9.00;99.90;;;;;;5091390;28;20157;-44
2023/04/30 02:27:39;;;;;;;17.83;10.77;;;8.90;99.90;;;;;;5091602;28;20177;-47
2023/04/30 02:30:05;;;;;;;15.93;9.70;;;9.00;99.90;;;;;;5091368;28;20157;-46
2023/04/30 02:32:31;;;;;;;14.70;10.65;;;8.90;99.90;;;;;;5091555;28;20178;-44
2023/04/30 02:34:56;;;;;;;17.38;10.43;;;;;;;;;;5091501;28;20205;-44
2023/04/30 02:37:23;;;;;;;14.45;8.85;;;8.90;99.90;;;;;;5091457;28;20168;-45
2023/04/30 02:39:48;;;;;;;16.00;9.02;;;8.90;99.90;;;;;;5093309;28;20248;-45
2023/04/30 02:42:14;;;;;;;11.25;7.80;;;8.80;99.90;;;;;;5095211;28;20268;-44
2023/04/30 02:44:40;;;;;;;9.88;7.35;;;8.70;99.90;;;;;;5095201;28;20242;-45
2023/04/30 02:47:05;;;;;;;11.20;7.82;;;8.60;99.90;;;;;;5095232;28;20178;-44
2023/04/30 02:49:31;;;;;;;10.77;7.88;;;8.70;99.90;;;;;;5095226;28;20212;-45
2023/04/30 02:51:56;;;;;;;11.93;8.55;;;8.70;99.90;;;;;;5095225;28;20162;-44
2023/04/30 02:54:22;;;;;;;14.05;8.25;;;8.60;99.90;;;;;;5094693;28;20613;-46
2023/04/30 02:56:48;;;;;;;10.80;8.57;;;8.60;99.90;;;;;;5094685;28;20162;-45
2023/04/30 02:59:13;;;;;;;11.25;8.63;;;8.60;99.90;;;;;;5094577;28;20173;-44
2023/04/30 03:01:39;;;;;;;14.25;9.13;;;8.60;99.90;;;;;;5094665;28;20172;-45
2023/04/30 03:04:04;;;;;;;13.27;9.15;;;8.60;99.90;;;;;;5094632;28;20199;-44
2023/04/30 03:06:31;;;;;;;12.55;9.85;;;8.60;99.90;;;;;;5094549;28;20162;-45
2023/04/30 03:08:57;;;;;;;16.02;9.95;;;8.60;99.90;;;;;;5094915;28;20169;-46
2023/04/30 03:11:23;;;;;;;16.60;10.70;;;8.60;99.90;;;;;;5093456;28;20567;-45
2023/04/30 03:13:51;;;;;;;15.68;11.45;;;8.50;99.90;;;;;;5094568;28;20242;-45
2023/04/30 03:16:18;;;;;;;13.68;9.25;;;8.40;99.90;;;;;;5094402;28;20184;-46
2023/04/30 03:18:44;;;;;;;14.45;10.43;;;8.40;99.90;;;;;;5094609;28;20274;-45
2023/04/30 03:21:10;;;;;;;18.13;10.60;;;8.50;99.90;;;;;;5094360;28;20177;-44
2023/04/30 03:23:36;;;;;;;14.93;10.52;;;8.40;99.90;;;;;;5094355;28;20226;-45
2023/04/30 03:26:01;;;;;;;14.48;9.68;;;8.40;99.90;;;;;;5094189;28;20178;-48
2023/04/30 03:28:27;;;;;;;17.00;11.02;;;8.50;99.90;;;;;;5094284;28;20683;-45
2023/04/30 03:30:52;;;;;;;13.35;10.65;;;8.50;99.90;;;;;;5094640;28;20168;-44
2023/04/30 03:33:18;;;;;;;14.07;10.98;;;8.40;99.90;;;;;;5093851;28;20638;-45
2023/04/30 03:35:43;;;;;;;17.70;11.77;;;8.30;99.90;;;;;;5094146;28;20165;-45
2023/04/30 03:38:09;;;;;;;16.02;11.15;;;8.30;99.90;;;;;;5093465;28;20540;-45
2023/04/30 03:40:35;;;;;;;16.00;11.10;;;8.30;99.90;;;;;;5094117;28;20180;-45
2023/04/30 03:43:00;;;;;;;14.75;10.57;;;8.20;99.90;;;;;;5093840;28;20165;-46
2023/04/30 03:45:26;;;;;;;17.80;13.02;;;8.20;99.90;;;;;;5094218;28;20169;-44
2023/04/30 03:47:51;;;;;;;18.08;12.02;;;8.20;99.90;;;;;;5094050;28;20169;-45
2023/04/30 03:50:18;;;;;;;18.20;11.60;;;8.20;99.90;;;;;;5093353;28;20170;-44
2023/04/30 03:52:44;;;;;;;17.58;12.00;;;8.30;99.90;;;;;;5093405;28;20161;-45
2023/04/30 03:55:10;;;;;;;20.08;11.70;;;8.30;99.90;;;;;;5093547;28;20240;-44
2023/04/30 03:57:37;;;;;;;16.20;11.95;;;8.20;99.90;;;;;;5093669;28;20205;-44
2023/04/30 04:00:06;;;;;;;19.20;12.30;;;8.30;99.90;;;;;;5093847;28;20235;-44
2023/04/30 04:02:32;;;;;;;20.20;13.10;;;8.20;99.90;;;;;;5093723;28;20176;-44
2023/04/30 04:04:58;;;;;;;18.98;12.32;;;8.10;99.90;;;;;;5093447;28;20218;-45
2023/04/30 04:07:24;;;;;;;20.92;11.85;;;8.10;99.90;;;;;;5093776;28;20252;-45
2023/04/30 04:09:49;;;;;;;16.98;11.35;;;8.20;99.90;;;;;;5093160;28;20158;-45
2023/04/30 04:12:15;;;;;;;17.52;11.57;;;8.10;99.90;;;;;;5093272;28;20258;-45
2023/04/30 04:14:40;;;;;;;19.25;11.57;;;8.10;99.90;;;;;;5092956;28;20205;-45
2023/04/30 04:17:06;;;;;;;15.48;11.15;;;8.10;99.90;;;;;;5093458;28;20201;-45
2023/04/30 04:19:32;;;;;;;13.98;10.40;;;8.10;99.90;;;;;;5092901;28;20637;-46
2023/04/30 04:21:58;;;;;;;15.35;11.02;;;8.10;99.90;;;;;;5093103;28;20226;-44
2023/04/30 04:24:24;;;;;;;13.90;9.55;;;8.00;99.90;;;;;;5093724;28;20252;-45
2023/04/30 04:26:50;;;;;;;17.23;10.63;;;8.00;99.90;;;;;;5093025;28;20574;-46
2023/04/30 04:29:16;;;;;;;13.85;10.32;;;8.00;99.90;;;;;;5093279;28;20584;-46
2023/04/30 04:31:42;;;;;;;13.07;10.82;;;8.00;99.90;;;;;;5092976;28;20169;-48
2023/04/30 04:34:07;;;;;;;14.73;11.10;;;8.00;99.90;;;;;;5092809;28;20292;-47
2023/04/30 04:36:33;;;;;;;18.83;10.18;;;7.70;99.90;;;;;;5093158;28;20177;-46
2023/04/30 04:39:02;;;;;;;16.85;10.65;;;7.90;99.90;;;;;;5092752;28;20168;-45
2023/04/30 04:41:37;;;;;;;14.43;10.98;;;8.00;99.90;;;;;;5092933;28;20184;-48
2023/04/30 04:44:03;;;;;;;15.52;11.25;;;8.00;99.90;;;;;;5092800;28;20157;-49
2023/04/30 04:46:30;;;;;;;14.25;10.05;;;8.10;99.90;;;;;;5092203;28;20180;-51
2023/04/30 04:48:56;;;;;;;17.90;11.30;;;8.10;99.90;;;;;;5092960;28;20166;-50
2023/04/30 04:51:22;;;;;;;16.27;11.30;;;8.20;99.90;;;;;;5093106;28;20523;-52
2023/04/30 04:53:48;;;;;;;17.63;12.30;;;8.20;99.90;;;;;;5092717;28;20698;-52
2023/04/30 04:56:13;;;;;;;17.27;11.82;;;8.20;99.90;;;;;;5092156;28;20189;-52
2023/04/30 04:58:41;;;;;;;16.70;11.68;;;8.20;99.90;;;;;;5092355;28;20168;-52
2023/04/30 05:01:06;;;;;;;16.50;11.65;;;8.30;99.90;;;;;;5092470;28;20226;-52
2023/04/30 05:03:33;;;;;;;18.90;11.48;;;8.40;99.90;;;;;;5092487;28;20173;-51
2023/04/30 05:05:58;;;;;;;15.25;10.95;;;8.50;99.90;;;;;;5092312;28;20161;-52
2023/04/30 05:08:24;;;;;;;16.38;11.77;;;8.50;99.90;;;;;;5092882;28;20551;-51
2023/04/30 05:10:50;;;;;;;16.63;11.45;;;8.60;99.90;;;;;;5092154;28;20225;-52
2023/04/30 05:13:15;;;;;;;18.83;12.20;;;8.70;99.90;;;;;;5092125;28;20215;-52
2023/04/30 05:15:41;;;;;;;16.67;11.32;;;8.70;99.90;;;;;;5092365;28;20260;-52
2023/04/30 05:18:06;;;;;;;17.50;11.45;;;8.80;99.90;;;;;;5092118;28;20169;-52
2023/04/30 05:20:32;;;;;;;14.80;10.95;;;8.80;99.90;;;;;;5092034;28;20285;-52
2023/04/30 05:22:57;;;;;;;15.50;11.63;;;8.90;99.90;;;;;;5092019;28;20161;-51
2023/04/30 05:25:23;;;;;;;15.10;10.38;;;9.00;99.90;;;;;;5092487;28;20169;-51
2023/04/30 05:27:48;;;;;;;18.77;11.65;;;9.10;99.90;;;;;;5091944;28;20161;-51
2023/04/30 05:30:14;;;;;;;11.90;9.65;;;9.20;99.90;;;;;;5091929;28;20172;-52
2023/04/30 05:32:41;;;;;;;11.35;8.70;;;9.20;99.90;;;;;;5091877;28;20169;-51
2023/04/30 05:35:07;;;;;;;16.48;10.30;;;9.00;99.90;;;;;;5091813;28;20200;-51
2023/04/30 05:37:32;;;;;;;15.70;10.55;;;9.00;99.90;;;;;;5091507;28;20573;-52
2023/04/30 05:39:58;;;;;;;15.10;10.57;;;9.10;99.90;;;;;;5091692;28;20169;-52
2023/04/30 05:42:24;;;;;;;13.27;10.50;;;9.10;99.90;;;;;;5092315;28;20165;-50
2023/04/30 05:44:49;;;;;;;13.75;10.05;;;9.30;99.90;;;;;;5091495;28;20173;-52
2023/04/30 05:47:15;;;;;;;18.90;11.07;;;9.40;99.90;;;;;;5092047;28;20184;-45
2023/04/30 05:49:41;;;;;;;15.23;10.52;;;9.40;99.90;;;;;;5091639;28;20628;-51
2023/04/30 05:52:06;;;;;;;15.32;10.65;;;9.50;99.90;;;;;;5091407;28;20204;-52
2023/04/30 05:54:32;;;;;;;14.75;11.02;;;9.50;99.90;;;;;;5091550;28;20208;-52
2023/04/30 05:56:57;;;;;;;14.15;10.27;;;9.50;99.90;;;;;;5091825;28;20364;-51
2023/04/30 05:59:23;;;;;;;13.77;10.98;;;9.60;99.90;;;;;;5092299;28;20178;-51
2023/04/30 06:01:48;;;;;;;15.07;10.65;;;9.70;99.90;;;;;;5091598;28;20195;-51
2023/04/30 06:04:14;;;;;;;17.70;12.07;;;9.80;99.90;;;;;;5091550;28;20199;-52
2023/04/30 06:06:39;;;;;;;18.17;11.23;;;9.80;99.90;;;;;;5091491;28;20173;-49
2023/04/30 06:09:05;;;;;;;14.55;11.65;;;9.90;99.90;;;;;;5091775;28;20172;-47
2023/04/30 06:11:31;;;;;;;17.25;12.70;;;9.80;99.90;;;;;;5091466;28;20253;-48
2023/04/30 06:13:57;;;;;;;15.02;10.93;;;12.40;99.90;;;;;;5092455;28;20205;-47
2023/04/30 06:16:23;;;;;;;17.08;12.90;;;9.90;99.90;;;;;;5095738;28;20172;-49
2023/04/30 06:18:49;;;;;;;17.52;11.68;;;;;;;;;;5094820;28;20629;-46
2023/04/30 06:21:15;;;;;;;14.65;11.27;;;;;;;;;;5095343;28;20174;-46
2023/04/30 06:23:40;;;;;;;15.63;11.48;;;10.20;99.90;;;;;;5095290;28;20165;-45
2023/04/30 06:26:06;;;;;;;14.82;11.68;;;10.20;99.90;;;;;;5095338;28;20188;-46
2023/04/30 06:28:31;;;;;;;15.45;11.32;;;10.30;99.90;;;;;;5095207;28;20165;-51
2023/04/30 06:30:57;;;;;;;16.00;11.75;;;10.50;99.90;;;;;;5095205;28;20591;-48
2023/04/30 06:33:23;;;;;;;18.35;12.30;;;10.60;99.90;;;;;;5095494;28;20157;-47
2023/04/30 06:35:51;;;;;;;17.25;10.77;;;10.70;99.90;;;;;;5095051;28;20252;-52
2023/04/30 06:38:19;;;;;;;17.45;11.90;;;10.80;99.90;;;;;;5095126;28;20165;-56
2023/04/30 06:40:45;;;;;;;15.48;11.45;;;;;;;;;;5095273;28;20177;-47
2023/04/30 06:43:11;;;;;;;17.10;12.27;;;11.00;99.90;;;;;;5094886;28;20310;-46
2023/04/30 06:45:37;;;;;;;15.88;12.23;;;11.10;99.90;;;;;;5095173;28;20169;-47
2023/04/30 06:48:02;;;;;;;15.63;11.30;;;11.10;99.90;;;;;;5094812;28;20166;-52
2023/04/30 06:50:28;;;;;;;14.65;11.63;;;11.30;99.90;;;;;;5094828;28;20541;-45
2023/04/30 06:52:54;;;;;;;19.10;12.45;;;;;;;;;;5095103;28;20173;-50
2023/04/30 06:55:20;;;;;;;15.55;11.80;;;11.50;99.90;;;;;;5094780;28;20262;-51
2023/04/30 06:57:46;;;;;;;16.73;11.77;;;11.60;99.90;;;;;;5095128;28;21196;-53
2023/04/30 07:00:14;;;;;;;18.35;12.80;;;11.60;99.90;;;;;;5094717;28;20169;-54
2023/04/30 07:02:39;;;;;;;16.95;12.48;;;11.70;99.90;;;;;;5094974;28;20169;-47
2023/04/30 07:05:05;;;;;;;17.60;11.95;;;11.70;99.90;;;;;;5094699;28;20170;-50
2023/04/30 07:07:31;;;;;;;15.15;11.20;;;11.70;99.90;;;;;;5094771;28;20183;-50
2023/04/30 07:09:57;;;;;;;18.42;12.18;;;;;;;;;;5094571;28;20173;-50
2023/04/30 07:12:23;;;;;;;18.65;12.23;;;11.90;99.90;;;;;;5094678;28;20165;-53
2023/04/30 07:14:48;;;;;;;14.98;11.98;;;12.00;99.90;;;;;;5094334;28;20250;-52
2023/04/30 07:17:14;;;;;;;17.63;11.77;;;12.10;99.90;;;;;;5094039;28;20181;-54
2023/04/30 07:19:39;;;;;;;22.15;12.82;;;12.30;99.90;;;;;;5094481;28;20307;-53
2023/04/30 07:22:05;;;;;;;15.32;11.88;;;;;;;;;;5094285;28;20168;-55
2023/04/30 07:24:31;;;;;;;14.45;11.57;;;12.30;99.90;;;;;;5093844;28;20248;-53
2023/04/30 07:27:01;;;;;;;14.73;11.38;;;12.30;99.90;;;;;;5092870;28;20524;-51
2023/04/30 07:29:28;;;;;;;15.80;12.70;;;12.50;99.90;;;;;;5094657;28;20202;-53
2023/04/30 07:31:54;;;;;;;19.25;11.63;;;12.60;99.90;;;;;;5094268;28;20180;-53
2023/04/30 07:34:20;;;;;;;14.25;11.73;;;;;;;;;;5093811;28;20205;-52
2023/04/30 07:36:47;;;;;;;14.35;11.52;;;12.80;99.90;;;;;;5093201;28;20570;-51
2023/04/30 07:39:13;;;;;;;16.42;12.43;;;12.90;99.90;;;;;;5093948;28;20606;-51
2023/04/30 07:41:38;;;;;;;16.60;12.65;;;12.90;99.90;;;;;;5093890;28;20244;-49
2023/04/30 07:44:04;;;;;;;16.42;11.93;;;13.00;99.90;;;;;;5093737;28;20189;-53
2023/04/30 07:46:30;;;;;;;17.23;12.07;;;13.10;99.90;;;;;;5094040;28;20208;-53
2023/04/30 07:48:55;;;;;;;15.73;11.73;;;13.30;99.90;;;;;;5094102;28;20261;-53
2023/04/30 07:51:21;;;;;;;15.82;11.55;;;;;;;;;;5093766;28;20276;-53
2023/04/30 07:53:47;;;;;;;16.92;12.07;;;13.50;99.90;;;;;;5093683;28;20204;-51
2023/04/30 07:56:12;;;;;;;16.45;12.43;;;13.60;99.90;;;;;;5093755;28;20227;-53
2023/04/30 07:58:38;;;;;;;15.98;12.15;;;13.70;99.90;;;;;;5093551;28;20648;-53
2023/04/30 08:01:03;;;;;;;19.00;12.00;;;13.80;99.90;;;;;;5093770;28;20670;-52
2023/04/30 08:03:29;;;;;;;14.35;11.77;;;;;;;;;;5093488;28;20631;-54
2023/04/30 08:05:55;;;;;;;17.35;11.88;;;14.00;99.90;;;;;;5094180;28;20174;-52
2023/04/30 08:08:21;;;;;;;15.50;12.15;;;14.10;99.90;;;;;;5093271;28;20162;-53
2023/04/30 08:10:46;;;;;;;13.73;11.68;;;14.00;99.90;;;;;;5093149;28;20215;-49
2023/04/30 08:13:12;;;;;;;15.60;11.90;;;14.20;99.90;;;;;;5093269;28;20206;-52
2023/04/30 08:15:38;;;;;;;14.88;12.50;;;14.30;99.90;;;;;;5093064;28;20205;-52
2023/04/30 08:18:04;;;;;;;13.15;11.57;;;14.50;99.90;;;;;;5093482;28;20173;-51
2023/04/30 08:20:31;;;;;;;15.70;11.45;;;14.50;99.90;;;;;;5093071;28;20629;-53
2023/04/30 08:22:57;;;;;;;15.27;10.68;;;14.60;99.90;;;;;;5092964;28;20161;-53
2023/04/30 08:25:22;;;;;;;16.98;12.25;;;14.60;99.90;;;;;;5093443;28;20162;-50
2023/04/30 08:27:48;;;;;;;15.27;11.57;;;14.60;99.90;;;;;;5092964;28;20165;-53
2023/04/30 08:30:13;;;;;;;14.00;11.75;;;14.80;99.90;;;;;;5092886;28;20629;-52
2023/04/30 08:32:39;;;;;;;14.95;11.57;;;14.80;99.90;;;;;;5092729;28;20529;-51
2023/04/30 08:35:05;;;;;;;13.98;11.35;;;15.00;99.90;;;;;;5092731;28;20672;-47
2023/04/30 08:37:31;;;;;;;12.27;10.98;;;15.10;99.90;;;;;;5092333;28;20173;-48
2023/04/30 08:39:57;;;;;;;15.13;10.88;;;15.10;99.90;;;;;;5092740;28;20172;-53
2023/04/30 08:42:29;;;;;;;14.43;11.30;;;15.10;99.90;;;;;;5092917;28;20204;-53
2023/04/30 08:44:55;;;;;;;13.57;10.90;;;15.20;99.90;;;;;;5092901;28;20214;-53
2023/04/30 08:47:22;;;;;;;13.95;11.43;;;15.30;99.90;;;;;;5093314;28;20173;-53
2023/04/30 08:49:48;;;;;;;12.68;10.52;;;15.40;99.90;;;;;;5091133;28;20173;-52
2023/04/30 08:52:14;;;;;;;12.57;10.43;;;15.50;99.90;;;;;;5092604;28;20567;-54
2023/04/30 08:54:41;;;;;;;14.63;10.52;;;15.50;99.90;;;;;;5092473;28;20559;-53
2023/04/30 08:57:06;;;;;;;14.00;10.95;;;15.60;99.90;;;;;;5092346;28;20165;-50
2023/04/30 08:59:32;;;;;;;12.02;10.30;;;15.70;99.90;;;;;;5092349;28;20168;-53
2023/04/30 09:02:00;;;;;;;12.48;11.00;;;15.70;99.90;;;;;;5092185;28;20169;-53
2023/04/30 09:04:26;;;;;;;14.02;11.07;;;;;;;;;;5092003;28;20629;-45
2023/04/30 09:06:57;;;;;;;13.93;9.75;;;16.10;99.90;;;;;;5092517;28;20644;-53
2023/04/30 09:09:27;;;;;;;12.55;10.13;;;16.00;99.90;;;;;;5092784;28;20529;-51
2023/04/30 09:12:17;;;;;;;13.50;10.55;;;16.10;99.90;;;;;;5091960;28;20217;-52
2023/04/30 09:15:04;;;;;;;10.52;9.50;;;16.10;99.90;;;;;;5092265;28;20209;-53
2023/04/30 09:17:31;;;;;;;11.68;8.27;;;16.20;99.90;;;;;;5092021;28;20279;-53
2023/04/30 09:20:08;;;;;;;12.10;8.60;;;16.30;99.90;;;;;;5092134;28;20169;-53
2023/04/30 09:22:35;;;;;;;11.13;8.80;;;16.20;99.90;;;;;;5091974;28;20327;-53
2023/04/30 09:25:01;;;;;;;10.63;9.15;;;16.40;99.90;;;;;;5092204;28;20214;-53
2023/04/30 09:27:27;;;;;;;12.13;8.85;;;16.50;99.90;;;;;;5091640;28;20166;-49
2023/04/30 09:29:52;;;;;;;11.93;8.65;;;16.40;99.90;;;;;;5092282;28;20196;-53
2023/04/30 09:32:18;;;;;;;12.00;8.27;;;16.60;99.90;;;;;;5092068;28;20157;-48
2023/04/30 09:34:43;;;;;;;7.22;6.50;;;16.70;99.90;;;;;;5092104;28;20255;-54
2023/04/30 09:37:10;;;;;;;10.32;8.65;;;16.70;99.90;;;;;;5091797;28;20651;-53
2023/04/30 09:39:49;;;;;;;10.68;8.55;;;16.90;99.90;;;;;;5091791;28;20644;-45
2023/04/30 09:42:15;;;;;;;12.27;9.75;;;16.90;99.90;;;;;;5091578;28;20180;-54
2023/04/30 09:44:42;;;;;;;11.30;9.13;;;17.00;99.90;;;;;;5090264;28;20169;-49
2023/04/30 09:47:12;;;;;;;9.05;8.07;;;17.00;99.90;;;;;;5090188;28;20529;-50
2023/04/30 09:49:41;;;;;;;14.02;9.52;;;17.20;99.90;;;;;;5089228;28;20519;-52
2023/04/30 09:52:07;;;;;;;11.75;8.73;;;17.20;99.90;;;;;;5090244;28;20173;-54
2023/04/30 09:54:33;;;;;;;10.85;9.45;;;;;;;;;;5089715;28;20209;-59
2023/04/30 09:57:01;;;;;;;12.48;10.05;;;17.20;99.90;;;;;;5089687;28;20169;-50
2023/04/30 09:59:38;;;;;;;12.40;10.40;;;17.50;99.90;;;;;;5089891;28;20176;-49
2023/04/30 10:02:06;;;;;;;12.05;10.75;;;17.40;99.90;;;;;;5090010;28;20169;-50
2023/04/30 10:04:47;;;;;;;13.88;10.65;;;17.70;99.90;;;;;;5090053;28;20172;-54
2023/04/30 10:07:18;;;;;;;13.38;10.38;;;17.90;99.90;;;;;;5089294;28;20161;-43
2023/04/30 10:09:56;;;;;;;9.85;8.18;;;17.60;99.90;;;;;;5089668;28;20210;-48
2023/04/30 10:12:31;;;;;;;10.18;9.18;;;17.80;99.90;;;;;;5089862;28;20173;-49
2023/04/30 10:15:08;;;;;;;12.65;8.48;;;18.00;99.90;;;;;;5089528;28;20193;-52
2023/04/30 10:17:39;;;;;;;8.32;6.93;;;18.10;99.90;;;;;;5089504;28;20647;-52
2023/04/30 10:20:08;;;;;;;8.00;6.43;;;17.50;99.90;;;;;;5089589;28;20188;-52
2023/04/30 10:22:34;;;;;;;7.03;6.28;;;17.60;99.90;;;;;;5089701;28;20189;-52
2023/04/30 10:25:01;;;;;;;7.10;5.40;;;17.90;99.90;;;;;;5089529;28;20169;-53
2023/04/30 10:27:27;;;;;;;6.93;5.93;;;;;;;;;;5089549;28;20246;-51
2023/04/30 10:29:54;;;;;;;8.10;7.30;;;18.10;99.90;;;;;;5089802;28;20525;-49
2023/04/30 10:32:21;;;;;;;9.65;6.40;;;18.30;99.90;;;;;;5089444;28;20267;-52
2023/04/30 10:35:06;;;;;;;6.70;4.95;;;18.40;99.90;;;;;;5089451;28;20216;-52
2023/04/30 10:38:16;;;;;;;6.75;4.88;;;18.10;99.90;;;;;;5089520;28;20173;-52
2023/04/30 10:40:45;;;;;;;6.90;4.63;;;17.80;99.90;;;;;;5082479;28;20632;-47
2023/04/30 10:43:11;;;;;;;7.20;4.85;;;18.20;99.90;;;;;;5089338;28;20180;-52
2023/04/30 10:45:41;;;;;;;6.07;5.15;;;18.30;99.90;;;;;;5088373;28;20564;-48
2023/04/30 10:48:07;;;;;;;5.75;4.85;;;;;;;;;;5087917;28;20180;-50
2023/04/30 10:50:40;;;;;;;5.15;4.53;;;18.40;99.90;;;;;;5089228;28;20168;-46
2023/04/30 10:53:06;;;;;;;5.65;4.75;;;;;;;;;;5089100;28;20181;-48
2023/04/30 10:55:32;;;;;;;4.65;3.78;;;;;;;;;;5089353;28;20215;-51
2023/04/30 10:57:58;;;;;;;4.70;3.78;;;18.40;99.90;;;;;;5089195;28;20162;-46
2023/04/30 11:00:28;;;;;;;5.45;4.20;;;18.30;99.90;;;;;;5089151;28;20180;-46
2023/04/30 11:03:02;;;;;;;5.18;3.30;;;18.50;99.90;;;;;;5093073;28;20170;-46
2023/04/30 11:05:38;;;;;;;3.88;3.47;;;19.00;99.90;;;;;;5093096;28;20689;-47
2023/04/30 11:08:10;;;;;;;4.78;3.70;;;19.40;99.90;;;;;;5092416;28;20260;-48
2023/04/30 11:10:36;;;;;;;5.05;3.55;;;;;;;;;;5092702;28;20220;-47
2023/04/30 11:13:06;;;;;;;4.30;3.90;;;19.20;99.90;;;;;;5092537;28;20256;-46
2023/04/30 11:15:40;;;;;;;4.60;3.60;;;19.50;99.90;;;;;;5092399;28;20286;-48
2023/04/30 11:18:07;;;;;;;4.50;3.58;;;19.60;99.90;;;;;;5092285;28;20209;-46
2023/04/30 11:20:47;;;;;;;4.05;3.63;;;19.30;99.90;;;;;;5091064;28;20169;-46
2023/04/30 11:23:15;;;;;;;3.88;3.42;;;18.20;99.90;;;;;;5092312;28;20618;-45
2023/04/30 11:25:45;;;;;;;4.13;3.72;;;19.30;99.90;;;;;;5092072;28;20173;-47
2023/04/30 11:28:20;;;;;;;3.50;3.20;;;18.90;99.90;;;;;;5092603;28;20166;-53
2023/04/30 11:30:57;;;;;;;3.97;2.70;;;18.40;99.90;;;;;;5092323;28;20180;-49
2023/04/30 11:33:28;;;;;;;4.20;3.10;;;18.30;99.90;;;;;;5092868;28;20161;-47
2023/04/30 11:35:55;;;;;;;5.20;2.97;;;18.00;99.90;;;;;;5074588;28;20193;-47
2023/04/30 11:38:29;;;;;;;3.78;2.83;;;18.40;99.90;;;;;;5092818;28;20195;-46
2023/04/30 11:40:59;;;;;;;2.63;2.42;;;18.80;99.90;;;;;;5092612;28;20193;-49
2023/04/30 11:43:26;;;;;;;3.15;2.85;;;17.80;99.90;;;;;;5091471;28;20158;-46
2023/04/30 11:46:07;;;;;;;4.43;3.20;;;19.30;99.90;;;;;;5092471;28;20173;-47
2023/04/30 11:48:37;;;;;;;2.40;2.20;;;19.80;99.90;;;;;;5092091;28;20166;-45
2023/04/30 11:51:13;;;;;;;2.58;2.38;;;20.30;99.20;;;;;;5091206;28;20264;-53
2023/04/30 11:53:38;;;;;;;2.33;2.13;;;20.50;98.10;;;;;;5091803;28;20169;-50
2023/04/30 11:56:05;;;;;;;3.20;1.92;;;;;;;;;;5091405;28;20230;-46
2023/04/30 11:58:36;;;;;;;2.15;1.98;;;20.60;97.50;;;;;;5091995;28;20174;-47
2023/04/30 12:01:02;;;;;;;3.47;2.30;;;;;;;;;;5091357;28;20169;-46
2023/04/30 12:03:29;;;;;;;4.18;2.65;;;;;;;;;;5091241;28;20173;-46
2023/04/30 12:05:55;;;;;;;2.00;1.90;;;;;;;;;;5091374;28;20582;-45
2023/04/30 12:08:21;;;;;;;2.35;2.15;;;20.40;96.60;;;;;;5091560;28;20174;-46
2023/04/30 12:10:47;;;;;;;2.55;2.33;;;;;;;;;;5091260;28;20224;-47
2023/04/30 12:13:13;;;;;;;6.30;4.20;;;20.60;97.60;;;;;;5090629;28;20244;-46
2023/04/30 12:15:39;;;;;;;2.30;2.03;;;20.70;95.60;;;;;;5106654;28;20205;-46
2023/04/30 12:18:12;;;;;;;1.75;1.65;;;20.50;95.90;;;;;;5091017;28;20574;-49
2023/04/30 12:20:39;;;;;;;2.00;1.90;;;20.60;94.50;;;;;;5090877;28;20164;-48
2023/04/30 12:23:05;;;;;;;3.35;1.88;;;;;;;;;;5091378;28;20162;-47
2023/04/30 12:25:39;;;;;;;2.00;1.77;;;20.40;94.40;;;;;;5091198;28;20247;-51
2023/04/30 12:28:05;;;;;;;1.67;1.58;;;20.50;93.50;;;;;;5091330;28;20157;-50
2023/04/30 12:30:31;;;;;;;3.28;1.60;;;20.20;93.60;;;;;;5091309;28;20512;-47
2023/04/30 12:32:58;;;;;;;3.45;1.80;;;19.70;94.90;;;;;;5091211;28;20169;-47
2023/04/30 12:35:24;;;;;;;1.55;1.40;;;;;;;;;;5090172;28;20573;-46
2023/04/30 12:38:05;;;;;;;3.47;1.20;;;19.90;92.70;;;;;;5091420;28;20637;-46
2023/04/30 12:40:33;;;;;;;2.20;1.42;;;19.70;92.50;;;;;;5091426;28;20181;-47
2023/04/30 12:43:03;;;;;;;2.72;1.50;;;20.10;93.30;;;;;;5091213;28;20177;-46
2023/04/30 12:45:51;;;;;;;1.60;1.40;;;20.20;93.20;;;;;;5090842;28;20252;-46
2023/04/30 12:48:24;;;;;;;1.52;1.25;;;19.70;93.60;;;;;;5091042;28;20531;-52